Time;durP1;ratioP1;P1;durP2;ratioP2;P2;SDS_P1;SDS_P2;PMS_P1;PMS_P2;Temp;Humidity;BMP_temperature;BMP_pressure;BME280_temperature;BME280_humidity;BME280_pressure;Samples;Min_cycle;Max_cycle;Signal;HPM_P1;HPM_P2
2022/06/26 00:01:30;;;;;;;;;;;14.30;99.90;;;;;;5039234;28;19929;-85
2022/06/26 00:04:37;;;;;;;;;;;14.30;99.90;;;;;;4967690;28;19910;-85
2022/06/26 00:07:46;;;;;;;;;;;14.20;99.90;;;;;;4963802;28;19930;-86
2022/06/26 00:15:32;;;;;;;;;;;15.20;99.90;;;;;;4803587;29;19933;-88
2022/06/26 00:19:18;;;;;;;;;;;;;;;;;;;;;
2022/06/26 00:25:58;;;;;;;;;;;;;;;;;;;;;
2022/06/26 00:30:00;;;;;;;;;;;12.70;99.90;;;;;;4829534;29;19939;-87
2022/06/26 00:37:24;;;;;;;;;;;14.10;99.90;;;;;;4898489;29;19927;-87
2022/06/26 01:04:34;;;;;;;;;;;;;;;;;;;;;
2022/06/26 01:08:33;;;;;;;;;;;;;;;;;;;;;
2022/06/26 01:19:33;;;;;;;;;;;;;;;;;;;;;
2022/06/26 01:26:46;;;;;;;;;;;13.60;99.90;;;;;;4887844;28;20616;-86
2022/06/26 01:38:02;;;;;;;;;;;13.60;99.90;;;;;;4911910;29;19914;-86
2022/06/26 01:41:49;;;;;;;;;;;;;;;;;;;;;
2022/06/26 01:45:25;;;;;;;;;;;13.20;99.90;;;;;;4927432;29;19931;-87
2022/06/26 01:49:28;;;;;;;;;;;;;;;;;;;;;
2022/06/26 01:53:35;;;;;;;;;;;;;;;;;;;;;
2022/06/26 01:56:54;;;;;;;;;;;12.60;99.90;;;;;;4978729;28;19933;-87
2022/06/26 02:00:37;;;;;;;;;;;;;;;;;;;;;
2022/06/26 02:08:31;;;;;;;;;;;;;;;;;;;;;
2022/06/26 02:16:42;;;;;;;;;;;12.20;99.90;;;;;;4905294;29;19927;-86
2022/06/26 02:24:03;;;;;;;;;;;;;;;;;;;;;
2022/06/26 02:35:57;;;;;;;;;;;;;;;;;;;;;
2022/06/26 02:39:47;;;;;;;;;;;14.80;99.90;;;;;;4872329;29;19915;-85
2022/06/26 02:51:18;;;;;;;;;;;;;;;;;;;;;
2022/06/26 02:54:44;;;;;;;;;;;;;;;;;;;;;
2022/06/26 02:58:11;;;;;;;;;;;;;;;;;;;;;
2022/06/26 03:01:57;;;;;;;;;;;;;;;;;;;;;
2022/06/26 03:09:56;;;;;;;;;;;;;;;;;;;;;
2022/06/26 03:17:04;;;;;;;;;;;;;;;;;;;;;
2022/06/26 03:20:16;;;;;;;;;;;12.70;99.90;;;;;;4849944;29;20083;-87
2022/06/26 03:24:04;;;;;;;;;;;12.40;99.90;;;;;;4861672;29;19928;-86
2022/06/26 03:27:47;;;;;;;;;;;12.00;99.90;;;;;;4897418;29;19933;-86
2022/06/26 03:31:56;;;;;;;;;;;;;;;;;;;;;
2022/06/26 03:43:29;;;;;;;;;;;;;;;;;;;;;
2022/06/26 03:48:01;;;;;;;;;;;12.20;99.90;;;;;;4874188;29;19929;-87
2022/06/26 03:54:33;;;;;;;;;;;12.40;99.90;;;;;;4802542;29;19914;-86
2022/06/26 04:12:23;;;;;;;;;;;12.70;99.90;;;;;;5156857;27;19976;-90
2022/06/26 04:14:54;;;;;;;;;;;12.30;99.90;;;;;;5108311;28;19924;-91
2022/06/26 04:17:27;;;;;;;;;;;12.40;99.90;;;;;;5101272;28;19939;-91
2022/06/26 04:20:05;;;;;;;;;;;12.40;99.90;;;;;;5076138;28;19929;-90
2022/06/26 04:22:36;;;;;;;;;;;12.40;99.90;;;;;;5106549;28;19931;-90
2022/06/26 04:25:09;;;;;;;;;;;12.70;99.90;;;;;;5102338;28;19924;-90
2022/06/26 04:27:44;;;;;;;;;;;12.50;99.90;;;;;;5102885;28;19928;-90
2022/06/26 04:30:19;;;;;;;;;;;12.40;99.90;;;;;;5100966;28;19932;-90
2022/06/26 04:33:09;;;;;;;;;;;12.40;99.90;;;;;;5088452;28;19962;-90
2022/06/26 04:35:41;;;;;;;;;;;12.50;99.90;;;;;;5067872;28;19928;-88
2022/06/26 04:38:14;;;;;;;;;;;12.50;99.90;;;;;;5100389;28;20395;-90
2022/06/26 04:41:31;;;;;;;;;;;12.50;99.90;;;;;;5081508;28;19924;-90
2022/06/26 04:43:56;;;;;;;;;;;12.50;99.90;;;;;;5096869;28;19925;-89
2022/06/26 04:46:24;;;;;;;;;;;12.60;99.90;;;;;;5079994;28;20543;-91
2022/06/26 04:48:57;;;;;;;;;;;12.60;99.90;;;;;;5069476;28;20438;-90
2022/06/26 04:51:58;;;;;;;;;;;12.70;99.90;;;;;;5104689;28;19931;-90
2022/06/26 04:54:50;;;;;;;;;;;12.50;99.90;;;;;;5087967;28;19924;-90
2022/06/26 04:57:25;;;;;;;;;;;12.70;99.90;;;;;;5073639;28;19929;-90
2022/06/26 04:59:53;;;;;;;;;;;12.80;99.90;;;;;;5069596;28;20310;-91
2022/06/26 05:02:52;;;;;;;;;;;12.90;99.90;;;;;;5081401;28;19939;-90
2022/06/26 05:05:43;;;;;;;;;;;12.90;99.90;;;;;;5097330;28;19936;-91
2022/06/26 05:08:35;;;;;;;;;;;13.00;99.90;;;;;;5078241;28;19932;-89
2022/06/26 05:11:51;;;;;;;;;;;12.80;99.90;;;;;;5097783;28;19915;-90
2022/06/26 05:15:17;;;;;;;;;;;13.10;99.90;;;;;;5087626;28;19928;-90
2022/06/26 05:17:45;;;;;;;;;;;13.20;99.90;;;;;;5100370;28;19929;-91
2022/06/26 05:20:28;;;;;;;;;;;12.50;99.90;;;;;;5067826;28;19936;-90
2022/06/26 05:22:57;;;;;;;;;;;13.30;99.90;;;;;;5087630;28;19928;-90
2022/06/26 05:25:25;;;;;;;;;;;13.40;99.90;;;;;;5053682;28;19924;-91
2022/06/26 05:28:23;;;;;;;;;;;13.40;99.90;;;;;;5085231;28;19936;-90
2022/06/26 05:31:01;;;;;;;;;;;13.50;99.90;;;;;;5056995;28;19931;-90
2022/06/26 05:33:38;;;;;;;;;;;13.50;99.90;;;;;;5074221;28;19924;-91
2022/06/26 05:36:20;;;;;;;;;;;13.60;99.90;;;;;;5068716;28;19921;-90
2022/06/26 05:39:01;;;;;;;;;;;13.70;99.90;;;;;;5084739;28;19928;-90
2022/06/26 05:41:54;;;;;;;;;;;13.80;99.90;;;;;;5087939;28;19924;-90
2022/06/26 05:44:31;;;;;;;;;;;13.90;99.90;;;;;;5064228;28;19963;-90
2022/06/26 05:47:04;;;;;;;;;;;14.20;99.90;;;;;;5045479;28;19925;-90
2022/06/26 05:49:43;;;;;;;;;;;14.00;99.90;;;;;;5058370;28;19936;-90
2022/06/26 05:52:36;;;;;;;;;;;14.10;99.90;;;;;;5068062;28;19925;-90
2022/06/26 05:55:43;;;;;;;;;;;14.20;99.90;;;;;;5083700;28;19924;-91
2022/06/26 05:58:33;;;;;;;;;;;14.30;99.90;;;;;;5086129;28;19933;-90
2022/06/26 06:01:17;;;;;;;;;;;13.20;99.90;;;;;;5055740;28;19932;-90
2022/06/26 06:03:53;;;;;;;;;;;14.40;99.90;;;;;;5075273;28;19929;-90
2022/06/26 06:09:41;;;;;;;;;;;14.60;99.90;;;;;;5081740;28;20789;-90
2022/06/26 06:12:12;;;;;;;;;;;15.20;99.90;;;;;;5065193;28;19935;-90
2022/06/26 06:14:42;;;;;;;;;;;14.20;99.90;;;;;;5043716;28;19935;-90
2022/06/26 06:20:08;;;;;;;;;;;14.80;99.90;;;;;;5061435;28;19991;-90
2022/06/26 06:22:53;;;;;;;;;;;14.90;99.90;;;;;;5085440;28;19928;-88
2022/06/26 06:25:37;;;;;;;;;;;15.00;99.90;;;;;;5055664;28;19928;-90
2022/06/26 06:28:24;;;;;;;;;;;14.90;99.90;;;;;;5063100;28;19924;-90
2022/06/26 06:30:55;;;;;;;;;;;14.90;99.90;;;;;;5068814;28;19932;-91
2022/06/26 06:33:28;;;;;;;;;;;15.00;99.90;;;;;;5079002;28;19920;-89
2022/06/26 06:35:58;;;;;;;;;;;15.10;99.90;;;;;;5063544;28;19928;-90
2022/06/26 06:38:32;;;;;;;;;;;15.10;99.90;;;;;;5056945;28;19924;-89
2022/06/26 06:41:05;;;;;;;;;;;15.20;99.90;;;;;;5066076;28;19935;-90
2022/06/26 06:43:53;;;;;;;;;;;15.30;99.80;;;;;;5079702;28;19920;-91
2022/06/26 06:46:27;;;;;;;;;;;14.40;99.60;;;;;;5066899;28;19950;-91
2022/06/26 06:49:06;;;;;;;;;;;15.40;99.70;;;;;;5067807;28;19929;-91
2022/06/26 06:51:49;;;;;;;;;;;15.40;99.40;;;;;;5075804;28;19925;-90
2022/06/26 06:54:17;;;;;;;;;;;15.50;99.40;;;;;;5049585;28;20307;-90
2022/06/26 06:56:46;;;;;;;;;;;15.50;99.30;;;;;;5073007;28;19924;-89
2022/06/26 06:59:15;;;;;;;;;;;15.60;99.20;;;;;;5072296;28;19929;-90
2022/06/26 07:01:46;;;;;;;;;;;15.70;99.20;;;;;;5074992;28;20296;-90
2022/06/26 07:04:17;;;;;;;;;;;15.70;99.00;;;;;;5071746;28;19932;-91
2022/06/26 07:07:09;;;;;;;;;;;15.70;99.10;;;;;;5065093;28;19928;-90
2022/06/26 07:09:40;;;;;;;;;;;17.10;99.30;;;;;;5063237;28;19939;-90
2022/06/26 07:12:12;;;;;;;;;;;15.80;98.60;;;;;;5074805;28;19924;-89
2022/06/26 07:14:43;;;;;;;;;;;15.70;98.30;;;;;;5047348;28;19938;-89
2022/06/26 07:17:21;;;;;;;;;;;15.90;98.60;;;;;;5059100;28;19928;-89
2022/06/26 07:19:55;;;;;;;;;;;16.60;98.50;;;;;;5078630;28;19935;-90
2022/06/26 07:22:25;;;;;;;;;;;16.10;97.80;;;;;;5055164;28;19935;-90
2022/06/26 07:25:04;;;;;;;;;;;16.30;97.80;;;;;;5046503;28;19928;-89
2022/06/26 07:27:39;;;;;;;;;;;16.30;97.80;;;;;;5060325;28;19925;-91
2022/06/26 07:30:08;;;;;;;;;;;16.50;97.70;;;;;;5071284;28;19936;-90
2022/06/26 07:36:00;;;;;;;;;;;16.80;96.50;;;;;;5049003;28;19936;-89
2022/06/26 07:38:35;;;;;;;;;;;17.00;96.50;;;;;;5059548;28;19939;-90
2022/06/26 07:41:25;;;;;;;;;;;17.10;96.20;;;;;;5048331;28;20343;-90
2022/06/26 07:44:01;;;;;;;;;;;17.30;95.70;;;;;;5066798;28;19932;-89
2022/06/26 07:46:39;;;;;;;;;;;17.30;95.50;;;;;;5057701;28;19935;-90
2022/06/26 07:49:12;;;;;;;;;;;17.00;94.80;;;;;;5082671;28;19929;-90
2022/06/26 07:51:44;;;;;;;;;;;17.40;94.90;;;;;;5060065;28;19925;-89
2022/06/26 07:54:16;;;;;;;;;;;17.90;95.60;;;;;;5054907;28;19924;-90
2022/06/26 07:56:49;;;;;;;;;;;17.50;94.10;;;;;;5081102;28;19924;-90
2022/06/26 07:59:42;;;;;;;;;;;17.50;94.30;;;;;;5081976;28;19932;-90
2022/06/26 08:02:10;;;;;;;;;;;17.60;93.90;;;;;;5080044;28;19939;-90
2022/06/26 08:04:43;;;;;;;;;;;17.60;93.80;;;;;;5071240;28;19928;-90
2022/06/26 08:07:45;;;;;;;;;;;17.60;93.50;;;;;;5074972;28;20053;-87
2022/06/26 08:10:28;;;;;;;;;;;17.50;93.10;;;;;;5064963;28;21221;-89
2022/06/26 08:12:57;;;;;;;;;;;17.40;93.50;;;;;;5062961;28;19925;-90
2022/06/26 08:15:32;;;;;;;;;;;17.30;93.80;;;;;;5081330;28;19932;-91
2022/06/26 08:18:01;;;;;;;;;;;17.30;93.20;;;;;;5063373;28;19936;-91
2022/06/26 08:20:32;;;;;;;;;;;17.30;93.40;;;;;;5059403;28;19924;-91
2022/06/26 08:23:19;;;;;;;;;;;17.20;93.50;;;;;;5055148;28;20438;-90
2022/06/26 08:26:32;;;;;;;;;;;17.20;93.90;;;;;;5075098;28;19936;-91
2022/06/26 08:29:15;;;;;;;;;;;17.20;93.40;;;;;;5044763;28;19928;-92
2022/06/26 08:31:46;;;;;;;;;;;17.30;93.50;;;;;;5063122;28;19928;-90
2022/06/26 08:34:15;;;;;;;;;;;17.10;93.40;;;;;;5059990;28;19928;-90
2022/06/26 08:36:45;;;;;;;;;;;17.00;93.50;;;;;;5074763;28;19932;-89
2022/06/26 08:39:15;;;;;;;;;;;17.10;93.50;;;;;;5077422;28;19935;-91
2022/06/26 08:41:46;;;;;;;;;;;17.20;93.70;;;;;;5081422;28;19935;-90
2022/06/26 08:44:16;;;;;;;;;;;17.20;93.70;;;;;;5065480;28;19924;-90
2022/06/26 08:46:46;;;;;;;;;;;17.30;93.40;;;;;;5054341;28;19931;-91
2022/06/26 08:49:16;;;;;;;;;;;17.50;93.20;;;;;;5070292;28;19932;-92
2022/06/26 08:51:46;;;;;;;;;;;17.60;91.50;;;;;;5064805;28;19932;-91
2022/06/26 08:54:18;;;;;;;;;;;17.60;92.00;;;;;;5063848;28;19999;-90
2022/06/26 08:56:52;;;;;;;;;;;17.70;91.40;;;;;;5080937;28;20006;-90
2022/06/26 08:59:24;;;;;;;;;;;18.00;91.50;;;;;;5068226;28;20293;-91
2022/06/26 09:01:56;;;;;;;;;;;18.10;91.10;;;;;;5084453;28;19931;-91
2022/06/26 09:04:30;;;;;;;;;;;18.30;91.10;;;;;;5084925;28;19925;-90
2022/06/26 09:06:58;;;;;;;;;;;18.30;90.60;;;;;;5069985;28;19928;-90
2022/06/26 09:09:31;;;;;;;;;;;18.30;89.50;;;;;;5081058;28;19924;-89
2022/06/26 09:12:01;;;;;;;;;;;18.30;90.10;;;;;;5082126;28;19936;-89
2022/06/26 09:14:34;;;;;;;;;;;18.30;90.10;;;;;;5086230;28;19924;-90
2022/06/26 09:17:02;;;;;;;;;;;18.30;90.00;;;;;;5069553;28;19930;-90
2022/06/26 09:19:36;;;;;;;;;;;18.30;90.10;;;;;;5055322;28;19925;-90
2022/06/26 09:22:07;;;;;;;;;;;18.30;90.40;;;;;;5067419;28;19932;-90
2022/06/26 09:24:36;;;;;;;;;;;18.50;90.20;;;;;;5067406;28;19925;-90
2022/06/26 09:27:13;;;;;;;;;;;18.60;90.30;;;;;;5088507;28;19942;-92
2022/06/26 09:29:51;;;;;;;;;;;18.80;90.70;;;;;;5068920;28;20352;-91
2022/06/26 09:32:24;;;;;;;;;;;18.80;90.30;;;;;;5061578;28;19931;-91
2022/06/26 09:34:54;;;;;;;;;;;18.90;90.40;;;;;;5068781;28;19942;-88
2022/06/26 09:37:24;;;;;;;;;;;19.00;89.60;;;;;;5081686;28;19936;-91
2022/06/26 09:40:18;;;;;;;;;;;19.20;89.90;;;;;;5081370;28;19924;-89
2022/06/26 09:42:57;;;;;;;;;;;19.20;87.40;;;;;;5084176;28;19929;-90
2022/06/26 09:45:28;;;;;;;;;;;19.60;86.00;;;;;;5079842;28;19946;-91
2022/06/26 09:47:57;;;;;;;;;;;19.30;86.40;;;;;;5079951;28;19932;-90
2022/06/26 09:50:26;;;;;;;;;;;19.10;84.50;;;;;;5071295;28;19932;-90
2022/06/26 09:52:57;;;;;;;;;;;19.30;86.00;;;;;;5091199;28;19916;-89
2022/06/26 09:55:28;;;;;;;;;;;19.40;86.10;;;;;;5075823;22;19929;-88
2022/06/26 09:57:56;;;;;;;;;;;19.50;85.40;;;;;;5054617;28;19913;-90
2022/06/26 10:00:26;;;;;;;;;;;19.70;86.50;;;;;;5052365;28;19933;-88
2022/06/26 10:09:00;;;;;;;;;;;19.90;82.10;;;;;;5050337;28;19932;-88
2022/06/26 10:11:30;;;;;;;;;;;19.90;81.60;;;;;;5063161;28;19933;-88
2022/06/26 10:14:14;;;;;;;;;;;19.90;80.50;;;;;;5055000;28;19940;-87
2022/06/26 10:17:00;;;;;;;;;;;19.80;81.40;;;;;;5044093;28;19925;-88
2022/06/26 10:19:47;;;;;;;;;;;19.90;81.90;;;;;;5016446;28;19936;-88
2022/06/26 10:22:18;;;;;;;;;;;20.00;82.10;;;;;;5031523;28;19925;-88
2022/06/26 10:24:55;;;;;;;;;;;20.10;81.30;;;;;;5039720;28;19940;-87
2022/06/26 10:27:29;;;;;;;;;;;20.30;81.70;;;;;;5047185;28;19933;-88
2022/06/26 10:30:07;;;;;;;;;;;20.50;80.10;;;;;;5055637;28;19925;-87
2022/06/26 10:32:43;;;;;;;;;;;20.60;79.20;;;;;;5036857;28;19926;-84
2022/06/26 10:35:36;;;;;;;;;;;20.70;78.00;;;;;;5018594;28;19926;-86
2022/06/26 10:38:23;;;;;;;;;;;20.80;77.10;;;;;;5023405;28;19929;-86
2022/06/26 10:44:05;;;;;;;;;;;21.10;75.90;;;;;;5036726;28;19929;-84
2022/06/26 10:46:36;;;;;;;;;;;21.50;74.60;;;;;;5022446;28;19949;-86
2022/06/26 10:49:11;;;;;;;;;;;21.60;75.50;;;;;;5023864;28;19934;-88
2022/06/26 10:51:41;;;;;;;;;;;21.80;74.20;;;;;;5035602;28;19933;-89
2022/06/26 10:54:21;;;;;;;;;;;22.00;73.80;;;;;;5020941;28;19945;-90
2022/06/26 10:57:09;;;;;;;;;;;22.10;73.10;;;;;;4993222;28;19932;-87
2022/06/26 10:59:42;;;;;;;;;;;22.10;73.10;;;;;;5014553;28;19933;-92
2022/06/26 11:02:13;;;;;;;;;;;22.20;73.20;;;;;;5020030;28;19930;-88
2022/06/26 11:04:49;;;;;;;;;;;22.30;72.60;;;;;;5019380;28;19940;-87
2022/06/26 11:07:50;;;;;;;;;;;22.30;72.70;;;;;;5023935;28;19925;-89
2022/06/26 11:10:21;;;;;;;;;;;22.50;71.90;;;;;;5020506;28;19926;-89
2022/06/26 11:12:50;;;;;;;;;;;22.60;72.20;;;;;;5020476;28;19937;-91
2022/06/26 11:15:31;;;;;;;;;;;22.80;72.60;;;;;;5035810;28;19925;-86
2022/06/26 11:18:00;;;;;;;;;;;22.80;72.90;;;;;;5017051;28;19925;-88
2022/06/26 11:20:50;;;;;;;;;;;22.90;72.20;;;;;;5020361;28;19929;-86
2022/06/26 11:23:29;;;;;;;;;;;22.90;72.20;;;;;;5020325;28;19930;-88
2022/06/26 11:26:08;;;;;;;;;;;22.80;72.40;;;;;;5023508;28;19960;-88
2022/06/26 11:28:40;;;;;;;;;;;22.80;72.70;;;;;;5005873;28;19929;-88
2022/06/26 11:31:20;;;;;;;;;;;22.80;72.70;;;;;;5026407;28;20703;-90
2022/06/26 11:34:10;;;;;;;;;;;22.80;72.70;;;;;;5019231;28;19938;-84
2022/06/26 11:36:58;;;;;;;;;;;22.70;73.30;;;;;;5035998;28;19937;-87
2022/06/26 11:39:37;;;;;;;;;;;22.60;73.40;;;;;;5039761;28;19944;-87
2022/06/26 11:42:18;;;;;;;;;;;22.60;73.70;;;;;;5010014;28;19929;-87
2022/06/26 11:45:00;;;;;;;;;;;22.70;73.30;;;;;;5037630;28;19925;-87
2022/06/26 11:47:34;;;;;;;;;;;22.90;72.70;;;;;;5020940;28;19937;-88
2022/06/26 11:50:16;;;;;;;;;;;23.00;71.50;;;;;;5035800;28;19930;-88
2022/06/26 11:52:52;;;;;;;;;;;23.20;70.90;;;;;;5026268;28;20389;-89
2022/06/26 11:55:25;;;;;;;;;;;23.30;70.80;;;;;;5026294;28;19930;-90
2022/06/26 11:58:05;;;;;;;;;;;23.40;70.80;;;;;;5040871;28;19926;-91
2022/06/26 12:00:38;;;;;;;;;;;23.60;70.10;;;;;;5022679;28;19951;-89
2022/06/26 12:03:35;;;;;;;;;;;23.60;69.50;;;;;;5057068;28;19926;-86
2022/06/26 12:06:04;;;;;;;;;;;23.50;69.50;;;;;;5025394;28;19929;-87
2022/06/26 12:08:35;;;;;;;;;;;23.20;68.90;;;;;;5024159;28;19930;-88
2022/06/26 12:11:16;;;;;;;;;;;22.90;69.80;;;;;;5055048;28;19929;-86
2022/06/26 12:13:46;;;;;;;;;;;22.90;70.80;;;;;;5024814;28;19940;-88
2022/06/26 12:16:18;;;;;;;;;;;22.90;71.10;;;;;;5055282;28;19933;-88
2022/06/26 12:18:49;;;;;;;;;;;22.80;70.70;;;;;;5028144;28;19933;-86
2022/06/26 12:21:24;;;;;;;;;;;22.60;70.90;;;;;;5025172;28;19926;-85
2022/06/26 12:23:55;;;;;;;;;;;22.30;71.30;;;;;;5029471;28;20196;-84
2022/06/26 12:26:24;;;;;;;;;;;22.20;72.20;;;;;;5015354;28;19929;-85
2022/06/26 12:29:04;;;;;;;;;;;22.00;72.00;;;;;;5019672;28;19926;-87
2022/06/26 12:31:34;;;;;;;;;;;22.00;72.30;;;;;;5046840;28;19941;-85
2022/06/26 12:34:04;;;;;;;;;;;22.30;71.30;;;;;;5020695;28;19926;-84
2022/06/26 12:36:33;;;;;;;;;;;22.30;71.20;;;;;;5055321;28;20302;-83
2022/06/26 12:39:05;;;;;;;;;;;21.20;70.30;;;;;;5039552;28;19936;-85
2022/06/26 12:41:53;;;;;;;;;;;22.60;70.10;;;;;;5020283;28;19941;-84
2022/06/26 12:44:25;;;;;;;;;;;22.70;69.60;;;;;;5020094;28;19929;-85
2022/06/26 12:46:57;;;;;;;;;;;22.70;69.10;;;;;;5019753;28;19929;-84
2022/06/26 12:49:27;;;;;;;;;;;22.70;69.20;;;;;;5035970;28;19941;-84
2022/06/26 12:51:54;;;;;;;;;;;22.70;69.80;;;;;;5022660;28;19929;-84
2022/06/26 12:54:33;;;;;;;;;;;22.70;69.20;;;;;;5022341;28;19926;-84
2022/06/26 12:57:04;;;;;;;;;;;22.80;69.70;;;;;;5008493;28;19930;-86
2022/06/26 12:59:40;;;;;;;;;;;23.10;70.40;;;;;;5054801;28;19932;-86
2022/06/26 13:02:10;;;;;;;;;;;23.30;69.20;;;;;;5045562;28;20115;-85
2022/06/26 13:04:40;;;;;;;;;;;23.50;68.10;;;;;;5055878;28;19936;-85
2022/06/26 13:07:09;;;;;;;;;;;23.70;67.30;;;;;;5039262;28;19937;-85
2022/06/26 13:09:38;;;;;;;;;;;23.70;68.00;;;;;;5028075;28;19933;-85
2022/06/26 13:12:07;;;;;;;;;;;23.70;68.30;;;;;;5021049;28;19933;-85
2022/06/26 13:14:42;;;;;;;;;;;23.70;68.70;;;;;;5043616;28;19932;-83
2022/06/26 13:17:26;;;;;;;;;;;24.00;70.30;;;;;;5031368;28;20359;-84
2022/06/26 13:19:53;;;;;;;;;;;23.90;69.90;;;;;;5028743;28;20406;-86
2022/06/26 13:22:24;;;;;;;;;;;24.10;69.10;;;;;;5010361;28;20388;-87
2022/06/26 13:24:54;;;;;;;;;;;24.00;68.80;;;;;;5043450;28;20489;-86
2022/06/26 13:27:43;;;;;;;;;;;23.80;69.40;;;;;;5042022;28;19929;-87
2022/06/26 13:30:27;;;;;;;;;;;23.70;69.80;;;;;;5013935;28;19939;-85
2022/06/26 13:33:06;;;;;;;;;;;23.60;70.70;;;;;;5051870;28;19940;-85
2022/06/26 13:35:34;;;;;;;;;;;24.00;70.90;;;;;;5038102;28;19936;-85
2022/06/26 13:38:03;;;;;;;;;;;22.60;70.10;;;;;;5031029;28;20123;-85
2022/06/26 13:40:34;;;;;;;;;;;24.40;69.40;;;;;;5034334;28;19933;-86
2022/06/26 13:43:04;;;;;;;;;;;24.80;67.90;;;;;;5032117;28;19933;-85
2022/06/26 13:45:32;;;;;;;;;;;24.80;67.40;;;;;;5030429;28;19933;-85
2022/06/26 13:48:06;;;;;;;;;;;24.50;67.50;;;;;;5011166;28;19940;-86
2022/06/26 13:50:35;;;;;;;;;;;24.50;67.40;;;;;;5031876;28;19940;-85
2022/06/26 13:53:07;;;;;;;;;;;24.00;67.80;;;;;;5035257;28;19929;-86
2022/06/26 13:55:36;;;;;;;;;;;23.80;68.70;;;;;;5033384;28;19941;-86
2022/06/26 13:58:10;;;;;;;;;;;23.50;69.40;;;;;;5038165;28;19940;-85
2022/06/26 14:00:41;;;;;;;;;;;23.50;69.60;;;;;;5024043;28;19935;-86
2022/06/26 14:03:44;;;;;;;;;;;23.50;69.70;;;;;;5040500;28;19921;-87
2022/06/26 14:06:15;;;;;;;;;;;23.50;69.00;;;;;;5045014;28;19940;-85
2022/06/26 14:08:45;;;;;;;;;;;23.50;69.50;;;;;;5043068;28;19929;-86
2022/06/26 14:11:15;;;;;;;;;;;24.00;68.30;;;;;;5048468;28;19925;-88
2022/06/26 14:13:50;;;;;;;;;;;24.00;67.70;;;;;;5037685;28;19933;-83
2022/06/26 14:16:18;;;;;;;;;;;24.30;67.60;;;;;;5044462;28;19929;-85
2022/06/26 14:18:49;;;;;;;;;;;24.60;66.50;;;;;;5040972;28;19932;-87
2022/06/26 14:21:21;;;;;;;;;;;24.60;65.50;;;;;;5038328;28;19936;-86
2022/06/26 14:26:41;;;;;;;;;;;25.10;65.40;;;;;;5038125;28;19925;-87
2022/06/26 14:29:15;;;;;;;;;;;25.20;65.60;;;;;;5021004;28;19933;-87
2022/06/26 14:31:48;;;;;;;;;;;25.10;65.30;;;;;;5027304;28;19936;-86
2022/06/26 14:34:37;;;;;;;;;;;25.00;65.20;;;;;;5008063;28;19921;-86
2022/06/26 14:37:08;;;;;;;;;;;25.30;64.80;;;;;;5040460;28;19933;-87
2022/06/26 14:39:39;;;;;;;;;;;25.40;63.70;;;;;;5029169;28;20204;-86
2022/06/26 14:42:10;;;;;;;;;;;25.60;64.50;;;;;;5041757;28;20388;-88
2022/06/26 14:44:41;;;;;;;;;;;25.50;63.80;;;;;;5045270;28;19925;-87
2022/06/26 14:47:10;;;;;;;;;;;25.50;63.80;;;;;;5043253;28;19938;-86
2022/06/26 14:49:43;;;;;;;;;;;25.60;63.60;;;;;;5040745;28;19932;-87
2022/06/26 14:52:12;;;;;;;;;;;25.40;63.60;;;;;;5044867;28;19932;-87
2022/06/26 14:54:42;;;;;;;;;;;25.50;64.50;;;;;;5024815;28;20020;-87
2022/06/26 14:57:14;;;;;;;;;;;25.50;64.30;;;;;;5056133;28;19925;-87
2022/06/26 14:59:43;;;;;;;;;;;25.40;64.20;;;;;;5037119;28;19933;-86
2022/06/26 15:02:40;;;;;;;;;;;25.50;63.80;;;;;;5039755;28;19933;-86
2022/06/26 15:05:19;;;;;;;;;;;25.80;63.70;;;;;;5005987;28;10000222;-87
2022/06/26 15:07:47;;;;;;;;;;;26.20;64.00;;;;;;5058828;28;19925;-87
2022/06/26 15:10:16;;;;;;;;;;;26.50;63.00;;;;;;5030985;28;20036;-87
2022/06/26 15:12:47;;;;;;;;;;;26.90;63.60;;;;;;5038840;28;19932;-87
2022/06/26 15:15:17;;;;;;;;;;;27.20;62.60;;;;;;5027146;28;19939;-87
2022/06/26 15:17:49;;;;;;;;;;;27.20;62.20;;;;;;5023358;28;19929;-87
2022/06/26 15:20:23;;;;;;;;;;;27.30;62.60;;;;;;5022474;28;19954;-87
2022/06/26 15:22:58;;;;;;;;;;;27.60;62.20;;;;;;5035762;28;20466;-86
2022/06/26 15:25:27;;;;;;;;;;;27.70;62.40;;;;;;5024811;28;19948;-87
2022/06/26 15:27:56;;;;;;;;;;;27.90;61.30;;;;;;5038621;28;19929;-87
2022/06/26 15:30:28;;;;;;;;;;;28.00;60.80;;;;;;5041145;28;19935;-88
2022/06/26 15:32:58;;;;;;;;;;;28.00;60.70;;;;;;5039265;28;19940;-87
2022/06/26 15:35:29;;;;;;;;;;;29.30;60.60;;;;;;5027317;28;19940;-87
2022/06/26 15:37:57;;;;;;;;;;;26.30;59.20;;;;;;5041883;28;19939;-87
2022/06/26 15:40:33;;;;;;;;;;;27.60;59.90;;;;;;5041914;28;19925;-86
2022/06/26 15:43:23;;;;;;;;;;;27.00;59.10;;;;;;5043635;28;19925;-86
2022/06/26 15:45:56;;;;;;;;;;;27.60;59.60;;;;;;5038071;28;19994;-85
2022/06/26 15:48:31;;;;;;;;;;;28.20;59.90;;;;;;5036785;28;20420;-86
2022/06/26 15:50:59;;;;;;;;;;;28.00;59.10;;;;;;5033730;28;20552;-85
2022/06/26 15:53:28;;;;;;;;;;;28.00;60.20;;;;;;5043414;28;19932;-87
2022/06/26 15:55:57;;;;;;;;;;;28.20;60.40;;;;;;5030726;28;19930;-87
2022/06/26 15:58:29;;;;;;;;;;;28.30;59.90;;;;;;5039256;28;19929;-86
2022/06/26 16:00:59;;;;;;;;;;;28.50;58.80;;;;;;5030379;28;19932;-86
2022/06/26 16:03:30;;;;;;;;;;;28.40;58.20;;;;;;5024816;28;20153;-85
2022/06/26 16:06:02;;;;;;;;;;;28.30;58.20;;;;;;5037445;28;19940;-86
2022/06/26 16:08:32;;;;;;;;;;;28.20;58.20;;;;;;5054323;28;19925;-86
2022/06/26 16:11:08;;;;;;;;;;;28.10;57.90;;;;;;5022606;28;19929;-86
2022/06/26 16:13:42;;;;;;;;;;;28.00;58.30;;;;;;5040740;28;19926;-86
2022/06/26 16:16:15;;;;;;;;;;;27.90;57.90;;;;;;5037883;28;20482;-85
2022/06/26 16:18:43;;;;;;;;;;;27.70;58.20;;;;;;5038552;28;20001;-86
2022/06/26 16:21:11;;;;;;;;;;;27.50;58.30;;;;;;5043007;28;19940;-87
2022/06/26 16:26:27;;;;;;;;;;;27.30;57.70;;;;;;5026850;28;19926;-87
2022/06/26 16:28:59;;;;;;;;;;;27.00;58.20;;;;;;5025879;28;20470;-87
2022/06/26 16:31:30;;;;;;;;;;;26.60;58.10;;;;;;5023262;28;19936;-85
2022/06/26 16:33:58;;;;;;;;;;;26.20;58.80;;;;;;5022148;28;19933;-84
2022/06/26 16:36:27;;;;;;;;;;;25.90;59.30;;;;;;5015507;28;19925;-86
2022/06/26 16:38:57;;;;;;;;;;;25.80;59.10;;;;;;5014237;28;19936;-86
2022/06/26 16:41:35;;;;;;;;;;;25.80;58.90;;;;;;5027530;28;20712;-87
2022/06/26 16:44:06;;;;;;;;;;;26.10;58.70;;;;;;5042701;28;19929;-87
2022/06/26 16:46:34;;;;;;;;;;;26.10;59.30;;;;;;5043377;28;19937;-86
2022/06/26 16:49:03;;;;;;;;;;;25.90;59.70;;;;;;5042597;28;19936;-87
2022/06/26 16:51:31;;;;;;;;;;;26.00;59.90;;;;;;5014193;28;19929;-86
2022/06/26 16:53:58;;;;;;;;;;;26.00;59.30;;;;;;5032255;28;19925;-87
2022/06/26 16:56:29;;;;;;;;;;;26.00;59.70;;;;;;5032153;28;19931;-86
2022/06/26 16:58:57;;;;;;;;;;;26.30;59.40;;;;;;5045063;28;20469;-87
2022/06/26 17:01:26;;;;;;;;;;;26.30;59.00;;;;;;5019744;28;20308;-85
2022/06/26 17:03:57;;;;;;;;;;;26.20;58.90;;;;;;5041003;28;19925;-85
2022/06/26 17:06:24;;;;;;;;;;;26.10;59.00;;;;;;4686367;28;10000577;-85
2022/06/26 17:08:54;;;;;;;;;;;26.20;59.20;;;;;;5034507;28;20331;-86
2022/06/26 17:11:22;;;;;;;;;;;26.20;59.00;;;;;;5038755;28;19925;-86
2022/06/26 17:13:53;;;;;;;;;;;26.30;59.20;;;;;;5036013;28;19940;-87
2022/06/26 17:16:23;;;;;;;;;;;26.60;58.90;;;;;;5007977;28;19925;-87
2022/06/26 17:18:53;;;;;;;;;;;26.60;59.80;;;;;;5039844;28;20292;-86
2022/06/26 17:21:23;;;;;;;;;;;26.10;59.30;;;;;;5041475;28;20374;-88
2022/06/26 17:23:58;;;;;;;;;;;26.30;59.40;;;;;;5039997;28;19933;-88
2022/06/26 17:26:25;;;;;;;;;;;25.90;59.60;;;;;;5044673;28;19933;-86
2022/06/26 17:28:54;;;;;;;;;;;25.60;60.00;;;;;;5039126;28;19925;-88
2022/06/26 17:31:26;;;;;;;;;;;25.40;60.20;;;;;;5031144;28;19932;-88
2022/06/26 17:33:56;;;;;;;;;;;25.30;60.10;;;;;;5027459;28;19933;-88
2022/06/26 17:36:24;;;;;;;;;;;24.90;60.50;;;;;;5023571;28;19929;-87
2022/06/26 17:38:55;;;;;;;;;;;25.60;60.00;;;;;;5038942;28;19932;-87
2022/06/26 17:41:31;;;;;;;;;;;25.50;59.70;;;;;;5041484;28;19932;-87
2022/06/26 17:44:02;;;;;;;;;;;25.40;58.90;;;;;;5054326;28;19936;-87
2022/06/26 17:46:30;;;;;;;;;;;25.20;59.40;;;;;;5009203;28;19932;-86
2022/06/26 17:49:00;;;;;;;;;;;25.50;59.80;;;;;;5009844;28;19944;-87
2022/06/26 17:51:28;;;;;;;;;;;25.80;59.50;;;;;;5025571;28;19925;-87
2022/06/26 17:53:55;;;;;;;;;;;26.00;59.30;;;;;;5026442;28;19929;-87
2022/06/26 17:56:24;;;;;;;;;;;26.40;58.30;;;;;;5029003;28;19932;-87
2022/06/26 17:58:54;;;;;;;;;;;26.60;58.40;;;;;;5058434;28;19932;-87
2022/06/26 18:01:22;;;;;;;;;;;27.00;58.00;;;;;;5038537;28;19925;-87
2022/06/26 18:03:50;;;;;;;;;;;27.10;57.90;;;;;;5041312;28;19935;-87
2022/06/26 18:06:18;;;;;;;;;;;27.40;57.60;;;;;;5038879;28;19939;-87
2022/06/26 18:08:45;;;;;;;;;;;27.60;57.40;;;;;;5056470;28;19943;-88
2022/06/26 18:11:13;;;;;;;;;;;27.70;57.30;;;;;;5041160;28;19926;-88
2022/06/26 18:13:41;;;;;;;;;;;27.40;57.40;;;;;;5039113;28;19925;-87
2022/06/26 18:16:13;;;;;;;;;;;27.10;57.70;;;;;;5055217;28;19936;-87
2022/06/26 18:18:45;;;;;;;;;;;26.80;57.70;;;;;;5028161;28;19933;-88
2022/06/26 18:21:21;;;;;;;;;;;26.50;58.60;;;;;;5027819;28;19929;-86